sensor_id;sensor_type;location;lat;lon;timestamp;pressure;altitude;pressure_sealevel;temperature;humidity
12077;BME280;12420;42.676;23.262;2023-05-11T00:00:00;94751.13;;;10.24;100.00
12077;BME280;12420;42.676;23.262;2023-05-11T00:02:26;94748.13;;;10.21;100.00
12077;BME280;12420;42.676;23.262;2023-05-11T00:04:53;94740.50;;;10.09;100.00
12077;BME280;12420;42.676;23.262;2023-05-11T00:07:20;94747.16;;;10.19;100.00
12077;BME280;12420;42.676;23.262;2023-05-11T00:09:47;94705.28;;;9.90;100.00
12077;BME280;12420;42.676;23.262;2023-05-11T00:12:15;94746.19;;;10.16;100.00
12077;BME280;12420;42.676;23.262;2023-05-11T00:14:42;94737.06;;;10.03;100.00
12077;BME280;12420;42.676;23.262;2023-05-11T00:17:09;94740.66;;;10.16;100.00
12077;BME280;12420;42.676;23.262;2023-05-11T00:19:36;94766.94;;;10.29;100.00
12077;BME280;12420;42.676;23.262;2023-05-11T00:22:02;94750.41;;;10.23;100.00
12077;BME280;12420;42.676;23.262;2023-05-11T00:24:29;94732.94;;;9.90;100.00
12077;BME280;12420;42.676;23.262;2023-05-11T00:26:56;94749.47;;;10.15;100.00
12077;BME280;12420;42.676;23.262;2023-05-11T00:29:24;94751.31;;;10.07;100.00
12077;BME280;12420;42.676;23.262;2023-05-11T00:31:51;94723.66;;;9.88;100.00
12077;BME280;12420;42.676;23.262;2023-05-11T00:34:17;94751.09;;;10.05;100.00
12077;BME280;12420;42.676;23.262;2023-05-11T00:36:44;94748.56;;;10.07;100.00
12077;BME280;12420;42.676;23.262;2023-05-11T00:39:11;94741.06;;;10.02;100.00
12077;BME280;12420;42.676;23.262;2023-05-11T00:41:38;94741.31;;;9.79;100.00
12077;BME280;12420;42.676;23.262;2023-05-11T00:44:04;94757.44;;;9.99;100.00
12077;BME280;12420;42.676;23.262;2023-05-11T00:46:33;94758.47;;;9.96;100.00
12077;BME280;12420;42.676;23.262;2023-05-11T00:49:00;94746.34;;;9.81;100.00
12077;BME280;12420;42.676;23.262;2023-05-11T00:51:26;94756.59;;;9.86;100.00
12077;BME280;12420;42.676;23.262;2023-05-11T00:53:53;94759.28;;;9.91;100.00
12077;BME280;12420;42.676;23.262;2023-05-11T00:56:20;94697.63;;;9.53;100.00
12077;BME280;12420;42.676;23.262;2023-05-11T00:58:47;94714.97;;;9.53;100.00
12077;BME280;12420;42.676;23.262;2023-05-11T01:01:14;94766.56;;;9.70;100.00
12077;BME280;12420;42.676;23.262;2023-05-11T01:03:45;94752.34;;;9.60;100.00
12077;BME280;12420;42.676;23.262;2023-05-11T01:06:17;94737.63;;;9.46;100.00
12077;BME280;12420;42.676;23.262;2023-05-11T01:08:51;94739.16;;;9.47;100.00
12077;BME280;12420;42.676;23.262;2023-05-11T01:11:27;94760.63;;;9.60;100.00
12077;BME280;12420;42.676;23.262;2023-05-11T01:14:01;94747.53;;;9.36;100.00
12077;BME280;12420;42.676;23.262;2023-05-11T01:16:32;94762.59;;;9.65;100.00
12077;BME280;12420;42.676;23.262;2023-05-11T01:19:07;94720.66;;;9.37;100.00
12077;BME280;12420;42.676;23.262;2023-05-11T01:21:38;94763.56;;;9.68;100.00
12077;BME280;12420;42.676;23.262;2023-05-11T01:24:21;94753.56;;;9.65;100.00
12077;BME280;12420;42.676;23.262;2023-05-11T01:27:05;94741.44;;;9.43;100.00
12077;BME280;12420;42.676;23.262;2023-05-11T01:29:48;94742.59;;;9.53;100.00
12077;BME280;12420;42.676;23.262;2023-05-11T01:32:23;94763.28;;;9.47;100.00
12077;BME280;12420;42.676;23.262;2023-05-11T01:35:03;94759.34;;;9.61;100.00
12077;BME280;12420;42.676;23.262;2023-05-11T01:37:32;94735.84;;;9.49;100.00
12077;BME280;12420;42.676;23.262;2023-05-11T01:40:04;94744.09;;;9.54;100.00
12077;BME280;12420;42.676;23.262;2023-05-11T01:42:41;94753.88;;;9.55;100.00
12077;BME280;12420;42.676;23.262;2023-05-11T01:45:10;94754.59;;;9.62;100.00
12077;BME280;12420;42.676;23.262;2023-05-11T01:47:41;94770.88;;;9.65;100.00
12077;BME280;12420;42.676;23.262;2023-05-11T01:50:10;94757.34;;;9.62;100.00
12077;BME280;12420;42.676;23.262;2023-05-11T01:52:38;94766.94;;;9.55;100.00
12077;BME280;12420;42.676;23.262;2023-05-11T01:55:08;94754.69;;;9.50;100.00
12077;BME280;12420;42.676;23.262;2023-05-11T01:57:37;94761.59;;;9.63;100.00
12077;BME280;12420;42.676;23.262;2023-05-11T02:00:05;94760.69;;;9.54;100.00
12077;BME280;12420;42.676;23.262;2023-05-11T02:02:33;94746.34;;;9.56;100.00
12077;BME280;12420;42.676;23.262;2023-05-11T02:05:04;94753.56;;;9.65;100.00
12077;BME280;12420;42.676;23.262;2023-05-11T02:07:34;94758.53;;;9.66;100.00
12077;BME280;12420;42.676;23.262;2023-05-11T02:10:02;94749.50;;;9.66;100.00
12077;BME280;12420;42.676;23.262;2023-05-11T02:12:30;94754.28;;;9.65;100.00
12077;BME280;12420;42.676;23.262;2023-05-11T02:14:58;94746.50;;;9.64;100.00
12077;BME280;12420;42.676;23.262;2023-05-11T02:17:27;94758.22;;;9.75;100.00
12077;BME280;12420;42.676;23.262;2023-05-11T02:19:55;94751.59;;;9.60;100.00
12077;BME280;12420;42.676;23.262;2023-05-11T02:22:24;94746.97;;;9.68;100.00
12077;BME280;12420;42.676;23.262;2023-05-11T02:24:51;94748.34;;;9.55;100.00
12077;BME280;12420;42.676;23.262;2023-05-11T02:27:18;94716.34;;;9.41;100.00
12077;BME280;12420;42.676;23.262;2023-05-11T02:29:45;94752.56;;;9.62;100.00
12077;BME280;12420;42.676;23.262;2023-05-11T02:32:17;94754.06;;;9.63;100.00
12077;BME280;12420;42.676;23.262;2023-05-11T02:34:49;94751.59;;;9.60;100.00
12077;BME280;12420;42.676;23.262;2023-05-11T02:37:23;94754.47;;;9.73;100.00
12077;BME280;12420;42.676;23.262;2023-05-11T02:39:59;94762.28;;;9.69;100.00
12077;BME280;12420;42.676;23.262;2023-05-11T02:42:29;94758.28;;;9.70;100.00
12077;BME280;12420;42.676;23.262;2023-05-11T02:45:01;94760.31;;;9.64;100.00
12077;BME280;12420;42.676;23.262;2023-05-11T02:47:31;94731.31;;;9.51;100.00
12077;BME280;12420;42.676;23.262;2023-05-11T02:50:01;94736.19;;;9.40;100.00
12077;BME280;12420;42.676;23.262;2023-05-11T02:52:29;94752.81;;;9.64;100.00
12077;BME280;12420;42.676;23.262;2023-05-11T02:55:00;94744.00;;;9.35;100.00
12077;BME280;12420;42.676;23.262;2023-05-11T02:57:29;94752.66;;;9.51;100.00
12077;BME280;12420;42.676;23.262;2023-05-11T02:59:57;94753.19;;;9.49;100.00
12077;BME280;12420;42.676;23.262;2023-05-11T03:02:28;94751.44;;;9.46;100.00
12077;BME280;12420;42.676;23.262;2023-05-11T03:04:55;94760.72;;;9.49;100.00
12077;BME280;12420;42.676;23.262;2023-05-11T03:07:22;94751.03;;;9.67;100.00
12077;BME280;12420;42.676;23.262;2023-05-11T03:09:49;94748.94;;;9.73;100.00
12077;BME280;12420;42.676;23.262;2023-05-11T03:12:17;94746.97;;;9.68;100.00
12077;BME280;12420;42.676;23.262;2023-05-11T03:14:45;94753.19;;;9.49;100.00
12077;BME280;12420;42.676;23.262;2023-05-11T03:17:13;94758.50;;;9.47;100.00
12077;BME280;12420;42.676;23.262;2023-05-11T03:19:41;94751.34;;;9.57;100.00
12077;BME280;12420;42.676;23.262;2023-05-11T03:22:09;94759.06;;;9.65;100.00
12077;BME280;12420;42.676;23.262;2023-05-11T03:24:38;94758.22;;;9.75;100.00
12077;BME280;12420;42.676;23.262;2023-05-11T03:27:06;94765.53;;;9.73;100.00
12077;BME280;12420;42.676;23.262;2023-05-11T03:29:36;94752.59;;;9.56;100.00
12077;BME280;12420;42.676;23.262;2023-05-11T03:32:06;94768.72;;;9.52;100.00
12077;BME280;12420;42.676;23.262;2023-05-11T03:34:33;94762.16;;;9.55;100.00
12077;BME280;12420;42.676;23.262;2023-05-11T03:37:01;94771.56;;;9.47;100.00
12077;BME280;12420;42.676;23.262;2023-05-11T03:39:31;94783.13;;;9.45;100.00
12077;BME280;12420;42.676;23.262;2023-05-11T03:41:59;94771.59;;;9.41;100.00
12077;BME280;12420;42.676;23.262;2023-05-11T03:44:27;94766.13;;;9.35;100.00
12077;BME280;12420;42.676;23.262;2023-05-11T03:46:56;94773.28;;;9.50;100.00
12077;BME280;12420;42.676;23.262;2023-05-11T03:49:25;94770.34;;;9.42;100.00
12077;BME280;12420;42.676;23.262;2023-05-11T03:51:53;94772.97;;;9.53;100.00
12077;BME280;12420;42.676;23.262;2023-05-11T03:54:20;94760.81;;;9.38;100.00
12077;BME280;12420;42.676;23.262;2023-05-11T03:56:47;94780.25;;;9.56;100.00
12077;BME280;12420;42.676;23.262;2023-05-11T03:59:14;94779.59;;;9.75;100.00
12077;BME280;12420;42.676;23.262;2023-05-11T04:01:42;94773.88;;;9.67;100.00
12077;BME280;12420;42.676;23.262;2023-05-11T04:04:10;94769.19;;;9.56;100.00
12077;BME280;12420;42.676;23.262;2023-05-11T04:06:37;94771.94;;;9.56;100.00
12077;BME280;12420;42.676;23.262;2023-05-11T04:09:04;94784.38;;;9.44;100.00
12077;BME280;12420;42.676;23.262;2023-05-11T04:11:35;94725.66;;;9.08;100.00
12077;BME280;12420;42.676;23.262;2023-05-11T04:14:01;94759.38;;;9.31;100.00
12077;BME280;12420;42.676;23.262;2023-05-11T04:16:28;94770.91;;;9.35;100.00
12077;BME280;12420;42.676;23.262;2023-05-11T04:18:55;94804.97;;;9.43;100.00
12077;BME280;12420;42.676;23.262;2023-05-11T04:21:23;94785.41;;;9.41;100.00
12077;BME280;12420;42.676;23.262;2023-05-11T04:23:50;94759.16;;;9.29;100.00
12077;BME280;12420;42.676;23.262;2023-05-11T04:26:17;94794.66;;;9.49;100.00
12077;BME280;12420;42.676;23.262;2023-05-11T04:28:43;94790.22;;;9.35;100.00
12077;BME280;12420;42.676;23.262;2023-05-11T04:31:10;94794.78;;;9.32;100.00
12077;BME280;12420;42.676;23.262;2023-05-11T04:33:37;94756.63;;;8.95;100.00
12077;BME280;12420;42.676;23.262;2023-05-11T04:36:05;94793.84;;;9.24;100.00
12077;BME280;12420;42.676;23.262;2023-05-11T04:38:33;94804.59;;;9.28;100.00
12077;BME280;12420;42.676;23.262;2023-05-11T04:41:02;94791.47;;;9.04;100.00
12077;BME280;12420;42.676;23.262;2023-05-11T04:43:29;94757.31;;;8.71;100.00
12077;BME280;12420;42.676;23.262;2023-05-11T04:45:55;94776.78;;;8.84;100.00
12077;BME280;12420;42.676;23.262;2023-05-11T04:48:23;94785.03;;;8.90;100.00
12077;BME280;12420;42.676;23.262;2023-05-11T04:50:50;94805.00;;;9.07;100.00
12077;BME280;12420;42.676;23.262;2023-05-11T04:53:17;94801.63;;;8.84;100.00
12077;BME280;12420;42.676;23.262;2023-05-11T04:55:45;94798.97;;;9.09;100.00
12077;BME280;12420;42.676;23.262;2023-05-11T04:58:12;94811.47;;;9.16;100.00
12077;BME280;12420;42.676;23.262;2023-05-11T05:00:39;94797.75;;;9.04;100.00
12077;BME280;12420;42.676;23.262;2023-05-11T05:03:05;94817.84;;;8.99;100.00
12077;BME280;12420;42.676;23.262;2023-05-11T05:05:32;94816.13;;;8.96;100.00
12077;BME280;12420;42.676;23.262;2023-05-11T05:08:00;94812.25;;;9.10;100.00
12077;BME280;12420;42.676;23.262;2023-05-11T05:10:26;94820.31;;;9.08;100.00
12077;BME280;12420;42.676;23.262;2023-05-11T05:12:54;94823.13;;;9.33;100.00
12077;BME280;12420;42.676;23.262;2023-05-11T05:15:21;94822.63;;;9.34;100.00
12077;BME280;12420;42.676;23.262;2023-05-11T05:17:48;94832.34;;;9.41;100.00
12077;BME280;12420;42.676;23.262;2023-05-11T05:20:15;94823.22;;;9.22;100.00
12077;BME280;12420;42.676;23.262;2023-05-11T05:22:41;94808.53;;;9.02;100.00
12077;BME280;12420;42.676;23.262;2023-05-11T05:25:08;94812.34;;;8.99;100.00
12077;BME280;12420;42.676;23.262;2023-05-11T05:27:36;94803.06;;;8.97;100.00
12077;BME280;12420;42.676;23.262;2023-05-11T05:30:06;94825.84;;;9.08;100.00
12077;BME280;12420;42.676;23.262;2023-05-11T05:32:32;94825.41;;;8.99;100.00
12077;BME280;12420;42.676;23.262;2023-05-11T05:34:59;94820.13;;;9.01;100.00
12077;BME280;12420;42.676;23.262;2023-05-11T05:37:26;94791.59;;;8.87;100.00
12077;BME280;12420;42.676;23.262;2023-05-11T05:39:53;94830.34;;;9.11;100.00
12077;BME280;12420;42.676;23.262;2023-05-11T05:42:20;94815.34;;;9.01;100.00
12077;BME280;12420;42.676;23.262;2023-05-11T05:44:47;94806.47;;;9.14;100.00
12077;BME280;12420;42.676;23.262;2023-05-11T05:47:15;94833.63;;;9.40;100.00
12077;BME280;12420;42.676;23.262;2023-05-11T05:49:43;94817.75;;;9.46;100.00
12077;BME280;12420;42.676;23.262;2023-05-11T05:52:10;94832.22;;;9.58;100.00
12077;BME280;12420;42.676;23.262;2023-05-11T05:54:37;94836.91;;;9.69;100.00
12077;BME280;12420;42.676;23.262;2023-05-11T05:57:03;94832.66;;;9.68;100.00
12077;BME280;12420;42.676;23.262;2023-05-11T05:59:31;94819.59;;;9.38;100.00
12077;BME280;12420;42.676;23.262;2023-05-11T06:01:57;94823.00;;;9.50;100.00
12077;BME280;12420;42.676;23.262;2023-05-11T06:04:25;94844.41;;;9.74;100.00
12077;BME280;12420;42.676;23.262;2023-05-11T06:06:52;94826.22;;;9.54;100.00
12077;BME280;12420;42.676;23.262;2023-05-11T06:09:20;94839.13;;;9.76;100.00
12077;BME280;12420;42.676;23.262;2023-05-11T06:11:47;94850.09;;;9.82;100.00
12077;BME280;12420;42.676;23.262;2023-05-11T06:14:13;94847.13;;;9.80;100.00
12077;BME280;12420;42.676;23.262;2023-05-11T06:16:43;94854.56;;;9.90;100.00
12077;BME280;12420;42.676;23.262;2023-05-11T06:19:11;94864.25;;;10.03;100.00
12077;BME280;12420;42.676;23.262;2023-05-11T06:21:42;94831.72;;;9.60;100.00
12077;BME280;12420;42.676;23.262;2023-05-11T06:24:10;94862.81;;;9.66;100.00
12077;BME280;12420;42.676;23.262;2023-05-11T06:26:37;94861.84;;;9.63;100.00
12077;BME280;12420;42.676;23.262;2023-05-11T06:29:05;94862.31;;;9.67;100.00
12077;BME280;12420;42.676;23.262;2023-05-11T06:31:32;94870.44;;;9.84;100.00
12077;BME280;12420;42.676;23.262;2023-05-11T06:33:58;94868.47;;;9.79;100.00
12077;BME280;12420;42.676;23.262;2023-05-11T06:36:25;94863.19;;;9.81;100.00
12077;BME280;12420;42.676;23.262;2023-05-11T06:38:54;94870.13;;;9.63;100.00
12077;BME280;12420;42.676;23.262;2023-05-11T06:41:20;94866.13;;;9.59;100.00
12077;BME280;12420;42.676;23.262;2023-05-11T06:43:47;94872.38;;;9.65;100.00
12077;BME280;12420;42.676;23.262;2023-05-11T06:46:14;94871.41;;;9.62;100.00
12077;BME280;12420;42.676;23.262;2023-05-11T06:48:42;94857.94;;;9.47;100.00
12077;BME280;12420;42.676;23.262;2023-05-11T06:51:09;94861.56;;;9.67;100.00
12077;BME280;12420;42.676;23.262;2023-05-11T06:53:36;94843.66;;;9.43;100.00
12077;BME280;12420;42.676;23.262;2023-05-11T06:56:04;94859.59;;;9.62;100.00
12077;BME280;12420;42.676;23.262;2023-05-11T06:58:33;94856.03;;;9.67;100.00
12077;BME280;12420;42.676;23.262;2023-05-11T07:01:00;94824.19;;;9.60;100.00
12077;BME280;12420;42.676;23.262;2023-05-11T07:03:30;94866.91;;;10.14;100.00
12077;BME280;12420;42.676;23.262;2023-05-11T07:05:56;94865.69;;;10.09;100.00
12077;BME280;12420;42.676;23.262;2023-05-11T07:08:23;94866.09;;;10.19;100.00
12077;BME280;12420;42.676;23.262;2023-05-11T07:10:50;94865.59;;;10.20;100.00
12077;BME280;12420;42.676;23.262;2023-05-11T07:13:19;94869.78;;;10.27;100.00
12077;BME280;12420;42.676;23.262;2023-05-11T07:15:45;94890.16;;;10.30;100.00
12077;BME280;12420;42.676;23.262;2023-05-11T07:18:14;94892.19;;;10.29;100.00
12077;BME280;12420;42.676;23.262;2023-05-11T07:20:41;94881.88;;;10.24;100.00
12077;BME280;12420;42.676;23.262;2023-05-11T07:23:08;94874.63;;;10.21;100.00
12077;BME280;12420;42.676;23.262;2023-05-11T07:25:34;94883.69;;;10.21;100.00
12077;BME280;12420;42.676;23.262;2023-05-11T07:28:01;94887.56;;;10.37;100.00
12077;BME280;12420;42.676;23.262;2023-05-11T07:30:30;94880.63;;;10.50;100.00
12077;BME280;12420;42.676;23.262;2023-05-11T07:32:56;94879.25;;;10.62;100.00
12077;BME280;12420;42.676;23.262;2023-05-11T07:35:26;94888.22;;;10.68;100.00
12077;BME280;12420;42.676;23.262;2023-05-11T07:37:53;94864.75;;;10.56;100.00
12077;BME280;12420;42.676;23.262;2023-05-11T07:40:20;94893.66;;;10.98;100.00
12077;BME280;12420;42.676;23.262;2023-05-11T07:42:46;94880.03;;;11.00;100.00
12077;BME280;12420;42.676;23.262;2023-05-11T07:45:13;94897.91;;;10.80;100.00
12077;BME280;12420;42.676;23.262;2023-05-11T07:47:41;94896.19;;;10.77;100.00
12077;BME280;12420;42.676;23.262;2023-05-11T07:50:09;94895.72;;;10.73;100.00
12077;BME280;12420;42.676;23.262;2023-05-11T07:52:37;94886.00;;;10.67;100.00
12077;BME280;12420;42.676;23.262;2023-05-11T07:55:04;94898.91;;;11.02;100.00
12077;BME280;12420;42.676;23.262;2023-05-11T07:57:31;94889.59;;;11.18;100.00
12077;BME280;12420;42.676;23.262;2023-05-11T07:59:58;94894.78;;;11.27;100.00
12077;BME280;12420;42.676;23.262;2023-05-11T08:02:24;94888.47;;;11.46;100.00
12077;BME280;12420;42.676;23.262;2023-05-11T08:04:52;94891.63;;;11.37;100.00
12077;BME280;12420;42.676;23.262;2023-05-11T08:07:19;94888.88;;;11.18;100.00
12077;BME280;12420;42.676;23.262;2023-05-11T08:09:46;94896.78;;;11.46;100.00
12077;BME280;12420;42.676;23.262;2023-05-11T08:12:13;94895.34;;;11.39;100.00
12077;BME280;12420;42.676;23.262;2023-05-11T08:14:40;94890.50;;;11.26;100.00
12077;BME280;12420;42.676;23.262;2023-05-11T08:17:07;94895.44;;;11.34;100.00
12077;BME280;12420;42.676;23.262;2023-05-11T08:19:34;94893.13;;;11.70;100.00
12077;BME280;12420;42.676;23.262;2023-05-11T08:22:05;94893.44;;;11.66;100.00
12077;BME280;12420;42.676;23.262;2023-05-11T08:24:33;94875.13;;;11.77;100.00
12077;BME280;12420;42.676;23.262;2023-05-11T08:27:00;94898.69;;;12.02;100.00
12077;BME280;12420;42.676;23.262;2023-05-11T08:29:28;94899.13;;;11.74;100.00
12077;BME280;12420;42.676;23.262;2023-05-11T08:31:57;94900.59;;;11.94;100.00
12077;BME280;12420;42.676;23.262;2023-05-11T08:34:24;94892.84;;;11.73;100.00
12077;BME280;12420;42.676;23.262;2023-05-11T08:36:50;94899.03;;;11.99;100.00
12077;BME280;12420;42.676;23.262;2023-05-11T08:39:21;94907.72;;;12.22;97.41
12077;BME280;12420;42.676;23.262;2023-05-11T08:41:48;94885.78;;;12.05;98.12
12077;BME280;12420;42.676;23.262;2023-05-11T08:44:16;94905.34;;;12.12;99.30
12077;BME280;12420;42.676;23.262;2023-05-11T08:46:45;94907.84;;;11.97;98.62
12077;BME280;12420;42.676;23.262;2023-05-11T08:49:12;94915.13;;;12.00;99.32
12077;BME280;12420;42.676;23.262;2023-05-11T08:51:40;94903.00;;;12.16;100.00
12077;BME280;12420;42.676;23.262;2023-05-11T08:54:07;94902.50;;;12.31;99.25
12077;BME280;12420;42.676;23.262;2023-05-11T08:56:36;94894.06;;;12.24;99.47
12077;BME280;12420;42.676;23.262;2023-05-11T08:59:05;94893.84;;;12.22;98.57
12077;BME280;12420;42.676;23.262;2023-05-11T09:01:35;94896.00;;;12.55;99.78
12077;BME280;12420;42.676;23.262;2023-05-11T09:04:02;94902.72;;;12.60;95.90
12077;BME280;12420;42.676;23.262;2023-05-11T09:06:30;94867.13;;;12.05;98.72
12077;BME280;12420;42.676;23.262;2023-05-11T09:08:57;94899.81;;;12.26;98.45
12077;BME280;12420;42.676;23.262;2023-05-11T09:11:25;94887.63;;;12.15;98.55
12077;BME280;12420;42.676;23.262;2023-05-11T09:13:54;94884.94;;;11.97;99.25
12077;BME280;12420;42.676;23.262;2023-05-11T09:16:20;94880.75;;;12.03;100.00
12077;BME280;12420;42.676;23.262;2023-05-11T09:18:47;94886.03;;;12.20;100.00
12077;BME280;12420;42.676;23.262;2023-05-11T09:21:15;94885.06;;;12.18;98.90
12077;BME280;12420;42.676;23.262;2023-05-11T09:23:41;94889.78;;;12.36;100.00
12077;BME280;12420;42.676;23.262;2023-05-11T09:26:15;94899.72;;;12.45;100.00
12077;BME280;12420;42.676;23.262;2023-05-11T09:28:49;94896.19;;;12.31;100.00
12077;BME280;12420;42.676;23.262;2023-05-11T09:31:37;94875.81;;;12.42;99.11
12077;BME280;12420;42.676;23.262;2023-05-11T09:34:09;94873.13;;;12.36;98.35
12077;BME280;12420;42.676;23.262;2023-05-11T09:36:36;94895.25;;;12.55;99.90
12077;BME280;12420;42.676;23.262;2023-05-11T09:39:03;94881.88;;;12.67;98.88
12077;BME280;12420;42.676;23.262;2023-05-11T09:41:30;94883.16;;;12.66;99.26
12077;BME280;12420;42.676;23.262;2023-05-11T09:44:03;94889.59;;;12.47;99.92
12077;BME280;12420;42.676;23.262;2023-05-11T09:46:30;94889.78;;;12.63;100.00
12077;BME280;12420;42.676;23.262;2023-05-11T09:48:59;94870.38;;;12.49;99.84
12077;BME280;12420;42.676;23.262;2023-05-11T09:51:29;94876.03;;;12.57;100.00
12077;BME280;12420;42.676;23.262;2023-05-11T09:53:57;94886.91;;;12.68;100.00
12077;BME280;12420;42.676;23.262;2023-05-11T09:56:43;94887.34;;;12.72;98.72
12077;BME280;12420;42.676;23.262;2023-05-11T09:59:10;94872.47;;;12.56;100.00
12077;BME280;12420;42.676;23.262;2023-05-11T10:01:37;94857.03;;;12.34;100.00
12077;BME280;12420;42.676;23.262;2023-05-11T10:04:05;94870.91;;;12.34;100.00
12077;BME280;12420;42.676;23.262;2023-05-11T10:06:44;94868.66;;;12.59;100.00
12077;BME280;12420;42.676;23.262;2023-05-11T10:09:12;94880.19;;;12.24;100.00
12077;BME280;12420;42.676;23.262;2023-05-11T10:11:42;94862.53;;;12.21;100.00
12077;BME280;12420;42.676;23.262;2023-05-11T10:14:11;94857.53;;;12.33;100.00
12077;BME280;12420;42.676;23.262;2023-05-11T10:16:40;94820.19;;;12.34;100.00
12077;BME280;12420;42.676;23.262;2023-05-11T10:19:10;94848.56;;;12.53;100.00
12077;BME280;12420;42.676;23.262;2023-05-11T10:21:38;94840.88;;;12.33;100.00
12077;BME280;12420;42.676;23.262;2023-05-11T10:24:06;94852.75;;;12.47;100.00
12077;BME280;12420;42.676;23.262;2023-05-11T10:26:33;94850.50;;;12.58;100.00
12077;BME280;12420;42.676;23.262;2023-05-11T10:29:01;94849.13;;;12.52;100.00
12077;BME280;12420;42.676;23.262;2023-05-11T10:31:28;94840.78;;;12.52;100.00
12077;BME280;12420;42.676;23.262;2023-05-11T10:33:56;94817.16;;;12.58;100.00
12077;BME280;12420;42.676;23.262;2023-05-11T10:36:24;94846.22;;;12.71;100.00
12077;BME280;12420;42.676;23.262;2023-05-11T10:38:52;94835.09;;;12.71;100.00
12077;BME280;12420;42.676;23.262;2023-05-11T10:41:28;94834.28;;;12.97;100.00
12077;BME280;12420;42.676;23.262;2023-05-11T10:44:17;94838.94;;;12.81;100.00
12077;BME280;12420;42.676;23.262;2023-05-11T10:47:14;94801.06;;;12.57;100.00
12077;BME280;12420;42.676;23.262;2023-05-11T10:50:04;94838.69;;;12.92;100.00
12077;BME280;12420;42.676;23.262;2023-05-11T10:52:57;94826.50;;;12.95;100.00
12077;BME280;12420;42.676;23.262;2023-05-11T10:55:41;94844.16;;;13.32;98.85
12077;BME280;12420;42.676;23.262;2023-05-11T10:58:14;94848.69;;;13.56;99.47
12077;BME280;12420;42.676;23.262;2023-05-11T11:03:40;94844.59;;;13.36;97.48
12077;BME280;12420;42.676;23.262;2023-05-11T11:06:20;94841.53;;;13.13;97.24
12077;BME280;12420;42.676;23.262;2023-05-11T11:44:20;94832.66;;;13.49;95.18
12077;BME280;12420;42.676;23.262;2023-05-11T11:47:10;94828.13;;;13.59;93.48
12077;BME280;12420;42.676;23.262;2023-05-11T11:49:38;94793.50;;;13.26;95.57
12077;BME280;12420;42.676;23.262;2023-05-11T11:52:10;94824.19;;;13.55;96.12
12077;BME280;12420;42.676;23.262;2023-05-11T11:54:37;94816.78;;;13.57;96.74
12077;BME280;12420;42.676;23.262;2023-05-11T11:57:04;94823.97;;;13.53;94.98
12077;BME280;12420;42.676;23.262;2023-05-11T11:59:44;94822.63;;;13.46;97.21
12077;BME280;12420;42.676;23.262;2023-05-11T12:02:15;94817.00;;;13.25;96.82
12077;BME280;12420;42.676;23.262;2023-05-11T12:04:51;94825.00;;;13.63;96.91
12077;BME280;12420;42.676;23.262;2023-05-11T12:07:23;94793.81;;;13.57;96.02
12077;BME280;12420;42.676;23.262;2023-05-11T12:09:50;94813.31;;;13.85;92.66
12077;BME280;12420;42.676;23.262;2023-05-11T12:12:18;94813.53;;;13.66;94.23
12077;BME280;12420;42.676;23.262;2023-05-11T12:14:47;94817.81;;;13.46;94.53
12077;BME280;12420;42.676;23.262;2023-05-11T12:17:23;94813.81;;;13.55;95.85
12077;BME280;12420;42.676;23.262;2023-05-11T12:19:50;94822.13;;;13.76;98.16
12077;BME280;12420;42.676;23.262;2023-05-11T12:22:21;94811.28;;;13.65;94.79
12077;BME280;12420;42.676;23.262;2023-05-11T12:24:56;94790.31;;;13.43;94.92
12077;BME280;12420;42.676;23.262;2023-05-11T12:27:24;94787.47;;;13.35;95.43
12077;BME280;12420;42.676;23.262;2023-05-11T12:29:52;94811.75;;;13.56;92.57
12077;BME280;12420;42.676;23.262;2023-05-11T12:32:24;94798.81;;;13.37;97.06
12077;BME280;12420;42.676;23.262;2023-05-11T12:34:58;94800.56;;;13.27;98.19
12077;BME280;12420;42.676;23.262;2023-05-11T12:37:25;94796.50;;;13.28;97.45
12077;BME280;12420;42.676;23.262;2023-05-11T12:39:54;94784.19;;;13.23;97.83
12077;BME280;12420;42.676;23.262;2023-05-11T12:42:21;94786.03;;;13.21;98.67
12077;BME280;12420;42.676;23.262;2023-05-11T12:44:53;94794.88;;;12.98;99.97
12077;BME280;12420;42.676;23.262;2023-05-11T12:47:20;94786.50;;;13.12;100.00
12077;BME280;12420;42.676;23.262;2023-05-11T12:49:50;94786.63;;;13.06;99.02
12077;BME280;12420;42.676;23.262;2023-05-11T12:52:22;94786.50;;;13.12;100.00
12077;BME280;12420;42.676;23.262;2023-05-11T12:54:49;94779.47;;;12.97;100.00
12077;BME280;12420;42.676;23.262;2023-05-11T12:57:24;94773.53;;;12.93;100.00
12077;BME280;12420;42.676;23.262;2023-05-11T13:00:11;94770.22;;;13.16;100.00
12077;BME280;12420;42.676;23.262;2023-05-11T13:02:49;94774.28;;;13.28;100.00
12077;BME280;12420;42.676;23.262;2023-05-11T13:05:18;94766.88;;;13.31;100.00
12077;BME280;12420;42.676;23.262;2023-05-11T13:07:56;94744.19;;;13.06;99.69
12077;BME280;12420;42.676;23.262;2023-05-11T13:10:30;94761.75;;;13.00;99.24
12077;BME280;12420;42.676;23.262;2023-05-11T13:12:57;94758.38;;;13.15;100.00
12077;BME280;12420;42.676;23.262;2023-05-11T13:15:25;94751.53;;;13.37;99.21
12077;BME280;12420;42.676;23.262;2023-05-11T13:18:00;94747.59;;;13.33;100.00
12077;BME280;12420;42.676;23.262;2023-05-11T13:20:29;94756.22;;;13.42;97.68
12077;BME280;12420;42.676;23.262;2023-05-11T13:23:03;94759.06;;;13.29;98.94
12077;BME280;12420;42.676;23.262;2023-05-11T13:25:31;94749.56;;;13.45;100.00
12077;BME280;12420;42.676;23.262;2023-05-11T13:27:58;94750.25;;;13.59;98.19
12077;BME280;12420;42.676;23.262;2023-05-11T13:30:30;94717.44;;;13.16;97.75
12077;BME280;12420;42.676;23.262;2023-05-11T13:32:56;94749.56;;;13.45;100.00
12077;BME280;12420;42.676;23.262;2023-05-11T13:35:29;94713.72;;;13.34;97.98